Terminal Aerodrome Forecast
Issued by NWS

Home | Current Version | Previous Version | Text Only | Print | Product List | Glossary Off
Versions: 1 2 3 4 5 6 7 8 9 10 11 12 13 14 15 16 17 18 19 20 21 22 23

000
FTUS43 KGRB 190814 AAA
TAFATW
TAF AMD
KATW 190814Z 1908/2006 09005KT P6SM SCT007 OVC012
      TEMPO 1908/1912 5SM -SHRA BKN007
     FM191400 03004KT P6SM BKN022
     FM191800 30005KT P6SM BKN035
     FM200200 03010KT P6SM BKN035=

USA.gov is the U.S. government's official web portal to all federal, state and local government web resources and services.